sensor_id;sensor_type;location;lat;lon;timestamp;temperature;humidity
19248;DHT22;9758;48.640;8.148;2023-04-25T00:00:08;13.00;50.60
19248;DHT22;9758;48.640;8.148;2023-04-25T00:02:35;12.90;50.60
19248;DHT22;9758;48.640;8.148;2023-04-25T00:05:04;12.90;50.60
19248;DHT22;9758;48.640;8.148;2023-04-25T00:07:31;12.90;50.60
19248;DHT22;9758;48.640;8.148;2023-04-25T00:09:58;12.90;50.70
19248;DHT22;9758;48.640;8.148;2023-04-25T00:12:25;13.00;50.60
19248;DHT22;9758;48.640;8.148;2023-04-25T00:14:53;13.00;50.60
19248;DHT22;9758;48.640;8.148;2023-04-25T00:17:22;13.00;50.60
19248;DHT22;9758;48.640;8.148;2023-04-25T00:19:50;13.00;50.60
19248;DHT22;9758;48.640;8.148;2023-04-25T00:22:18;13.00;50.60
19248;DHT22;9758;48.640;8.148;2023-04-25T00:24:45;13.00;50.50
19248;DHT22;9758;48.640;8.148;2023-04-25T00:27:11;13.00;50.50
19248;DHT22;9758;48.640;8.148;2023-04-25T00:29:42;13.00;50.60
19248;DHT22;9758;48.640;8.148;2023-04-25T00:32:09;13.00;50.50
19248;DHT22;9758;48.640;8.148;2023-04-25T00:34:36;13.00;50.60
19248;DHT22;9758;48.640;8.148;2023-04-25T00:37:03;13.00;50.60
19248;DHT22;9758;48.640;8.148;2023-04-25T00:39:31;13.00;50.60
19248;DHT22;9758;48.640;8.148;2023-04-25T00:41:58;12.90;50.60
19248;DHT22;9758;48.640;8.148;2023-04-25T00:44:27;12.90;50.60
19248;DHT22;9758;48.640;8.148;2023-04-25T00:46:55;12.80;50.60
19248;DHT22;9758;48.640;8.148;2023-04-25T00:49:21;12.80;50.60
19248;DHT22;9758;48.640;8.148;2023-04-25T00:51:48;12.90;50.70
19248;DHT22;9758;48.640;8.148;2023-04-25T00:54:16;12.80;50.70
19248;DHT22;9758;48.640;8.148;2023-04-25T00:56:45;12.70;50.70
19248;DHT22;9758;48.640;8.148;2023-04-25T00:59:11;12.70;50.70
19248;DHT22;9758;48.640;8.148;2023-04-25T01:01:39;12.80;50.80
19248;DHT22;9758;48.640;8.148;2023-04-25T01:04:07;12.70;51.30
19248;DHT22;9758;48.640;8.148;2023-04-25T01:06:33;12.70;50.70
19248;DHT22;9758;48.640;8.148;2023-04-25T01:09:02;12.80;50.70
19248;DHT22;9758;48.640;8.148;2023-04-25T01:11:29;12.70;50.70
19248;DHT22;9758;48.640;8.148;2023-04-25T01:13:57;12.70;50.70
19248;DHT22;9758;48.640;8.148;2023-04-25T01:16:24;12.70;50.70
19248;DHT22;9758;48.640;8.148;2023-04-25T01:18:51;12.70;50.80
19248;DHT22;9758;48.640;8.148;2023-04-25T01:21:20;12.60;50.80
19248;DHT22;9758;48.640;8.148;2023-04-25T01:23:47;12.60;51.00
19248;DHT22;9758;48.640;8.148;2023-04-25T01:26:14;12.50;51.00
19248;DHT22;9758;48.640;8.148;2023-04-25T01:28:40;12.50;51.10
19248;DHT22;9758;48.640;8.148;2023-04-25T01:31:07;12.50;51.10
19248;DHT22;9758;48.640;8.148;2023-04-25T01:33:35;12.60;51.20
19248;DHT22;9758;48.640;8.148;2023-04-25T01:36:02;12.60;51.30
19248;DHT22;9758;48.640;8.148;2023-04-25T01:38:31;12.60;51.20
19248;DHT22;9758;48.640;8.148;2023-04-25T01:40:58;12.60;51.20
19248;DHT22;9758;48.640;8.148;2023-04-25T01:43:25;12.60;51.20
19248;DHT22;9758;48.640;8.148;2023-04-25T01:45:52;12.70;51.20
19248;DHT22;9758;48.640;8.148;2023-04-25T01:48:18;12.70;51.30
19248;DHT22;9758;48.640;8.148;2023-04-25T01:50:45;12.70;51.30
19248;DHT22;9758;48.640;8.148;2023-04-25T01:53:13;12.70;51.50
19248;DHT22;9758;48.640;8.148;2023-04-25T01:55:41;12.60;51.30
19248;DHT22;9758;48.640;8.148;2023-04-25T01:58:08;12.70;51.40
19248;DHT22;9758;48.640;8.148;2023-04-25T02:00:38;12.60;51.30
19248;DHT22;9758;48.640;8.148;2023-04-25T02:03:06;12.70;51.40
19248;DHT22;9758;48.640;8.148;2023-04-25T02:05:36;12.60;51.40
19248;DHT22;9758;48.640;8.148;2023-04-25T02:08:05;12.60;51.40
19248;DHT22;9758;48.640;8.148;2023-04-25T02:10:32;12.60;51.50
19248;DHT22;9758;48.640;8.148;2023-04-25T02:13:00;12.60;51.50
19248;DHT22;9758;48.640;8.148;2023-04-25T02:15:27;12.60;51.50
19248;DHT22;9758;48.640;8.148;2023-04-25T02:17:54;12.60;51.60
19248;DHT22;9758;48.640;8.148;2023-04-25T02:20:22;12.50;51.60
19248;DHT22;9758;48.640;8.148;2023-04-25T02:22:49;12.50;51.60
19248;DHT22;9758;48.640;8.148;2023-04-25T02:25:17;12.50;51.70
19248;DHT22;9758;48.640;8.148;2023-04-25T02:27:45;12.50;51.70
19248;DHT22;9758;48.640;8.148;2023-04-25T02:30:14;12.50;51.70
19248;DHT22;9758;48.640;8.148;2023-04-25T02:32:40;12.50;51.80
19248;DHT22;9758;48.640;8.148;2023-04-25T02:35:08;12.50;51.80
19248;DHT22;9758;48.640;8.148;2023-04-25T02:37:36;12.50;51.80
19248;DHT22;9758;48.640;8.148;2023-04-25T02:40:04;12.50;51.80
19248;DHT22;9758;48.640;8.148;2023-04-25T02:42:32;12.50;51.90
19248;DHT22;9758;48.640;8.148;2023-04-25T02:44:59;12.50;51.90
19248;DHT22;9758;48.640;8.148;2023-04-25T02:47:27;12.50;51.90
19248;DHT22;9758;48.640;8.148;2023-04-25T02:49:54;12.50;51.90
19248;DHT22;9758;48.640;8.148;2023-04-25T02:52:20;12.50;51.90
19248;DHT22;9758;48.640;8.148;2023-04-25T02:54:47;12.40;51.90
19248;DHT22;9758;48.640;8.148;2023-04-25T02:57:14;12.40;52.00
19248;DHT22;9758;48.640;8.148;2023-04-25T02:59:41;12.40;52.00
19248;DHT22;9758;48.640;8.148;2023-04-25T03:02:07;12.40;52.00
19248;DHT22;9758;48.640;8.148;2023-04-25T03:04:35;12.40;52.00
19248;DHT22;9758;48.640;8.148;2023-04-25T03:07:02;12.40;52.00
19248;DHT22;9758;48.640;8.148;2023-04-25T03:09:29;12.40;52.10
19248;DHT22;9758;48.640;8.148;2023-04-25T03:11:56;12.40;52.10
19248;DHT22;9758;48.640;8.148;2023-04-25T03:14:22;12.40;52.10
19248;DHT22;9758;48.640;8.148;2023-04-25T03:16:49;12.40;52.10
19248;DHT22;9758;48.640;8.148;2023-04-25T03:19:16;12.40;52.20
19248;DHT22;9758;48.640;8.148;2023-04-25T03:24:20;12.40;52.20
19248;DHT22;9758;48.640;8.148;2023-04-25T03:26:47;12.30;52.10
19248;DHT22;9758;48.640;8.148;2023-04-25T03:29:19;12.40;52.20
19248;DHT22;9758;48.640;8.148;2023-04-25T03:31:49;12.40;52.20
19248;DHT22;9758;48.640;8.148;2023-04-25T03:34:17;12.30;52.20
19248;DHT22;9758;48.640;8.148;2023-04-25T03:36:47;12.30;52.20
19248;DHT22;9758;48.640;8.148;2023-04-25T03:39:14;12.30;52.90
19248;DHT22;9758;48.640;8.148;2023-04-25T03:41:43;12.30;52.30
19248;DHT22;9758;48.640;8.148;2023-04-25T03:44:13;12.30;52.30
19248;DHT22;9758;48.640;8.148;2023-04-25T03:46:40;12.30;52.40
19248;DHT22;9758;48.640;8.148;2023-04-25T03:49:16;12.30;52.40
19248;DHT22;9758;48.640;8.148;2023-04-25T03:51:43;12.30;52.40
19248;DHT22;9758;48.640;8.148;2023-04-25T03:54:17;12.20;52.40
19248;DHT22;9758;48.640;8.148;2023-04-25T03:56:47;12.20;52.40
19248;DHT22;9758;48.640;8.148;2023-04-25T03:59:14;12.20;52.50
19248;DHT22;9758;48.640;8.148;2023-04-25T04:01:41;12.20;52.50
19248;DHT22;9758;48.640;8.148;2023-04-25T04:04:09;12.20;52.50
19248;DHT22;9758;48.640;8.148;2023-04-25T04:06:37;12.10;52.50
19248;DHT22;9758;48.640;8.148;2023-04-25T04:09:05;12.10;52.50
19248;DHT22;9758;48.640;8.148;2023-04-25T04:11:36;12.10;52.60
19248;DHT22;9758;48.640;8.148;2023-04-25T04:14:06;12.10;52.60
19248;DHT22;9758;48.640;8.148;2023-04-25T04:16:33;12.00;52.60
19248;DHT22;9758;48.640;8.148;2023-04-25T04:19:00;12.00;52.60
19248;DHT22;9758;48.640;8.148;2023-04-25T04:21:27;12.10;52.70
19248;DHT22;9758;48.640;8.148;2023-04-25T04:23:55;12.00;52.70
19248;DHT22;9758;48.640;8.148;2023-04-25T04:26:23;12.00;52.70
19248;DHT22;9758;48.640;8.148;2023-04-25T04:29:00;12.00;52.70
19248;DHT22;9758;48.640;8.148;2023-04-25T04:31:29;12.00;52.80
19248;DHT22;9758;48.640;8.148;2023-04-25T04:33:58;12.00;52.80
19248;DHT22;9758;48.640;8.148;2023-04-25T04:36:27;12.00;52.80
19248;DHT22;9758;48.640;8.148;2023-04-25T04:38:54;12.00;52.80
19248;DHT22;9758;48.640;8.148;2023-04-25T04:41:21;12.00;52.80
19248;DHT22;9758;48.640;8.148;2023-04-25T04:43:49;11.90;52.80
19248;DHT22;9758;48.640;8.148;2023-04-25T04:46:18;11.90;52.80
19248;DHT22;9758;48.640;8.148;2023-04-25T04:48:47;11.90;52.90
19248;DHT22;9758;48.640;8.148;2023-04-25T04:51:16;11.90;52.90
19248;DHT22;9758;48.640;8.148;2023-04-25T04:53:44;11.90;52.90
19248;DHT22;9758;48.640;8.148;2023-04-25T04:56:25;11.90;52.90
19248;DHT22;9758;48.640;8.148;2023-04-25T04:58:57;11.90;53.10
19248;DHT22;9758;48.640;8.148;2023-04-25T05:01:24;12.00;53.10
19248;DHT22;9758;48.640;8.148;2023-04-25T05:04:09;12.00;53.10
19248;DHT22;9758;48.640;8.148;2023-04-25T05:06:44;12.00;53.00
19248;DHT22;9758;48.640;8.148;2023-04-25T05:09:13;12.00;53.00
19248;DHT22;9758;48.640;8.148;2023-04-25T05:11:40;12.00;53.00
19248;DHT22;9758;48.640;8.148;2023-04-25T05:14:21;12.00;53.00
19248;DHT22;9758;48.640;8.148;2023-04-25T05:16:52;12.10;53.00
19248;DHT22;9758;48.640;8.148;2023-04-25T05:19:28;12.10;53.00
19248;DHT22;9758;48.640;8.148;2023-04-25T05:21:56;12.10;53.00
19248;DHT22;9758;48.640;8.148;2023-04-25T05:24:30;12.10;53.00
19248;DHT22;9758;48.640;8.148;2023-04-25T05:27:01;12.10;53.00
19248;DHT22;9758;48.640;8.148;2023-04-25T05:29:29;12.10;53.00
19248;DHT22;9758;48.640;8.148;2023-04-25T05:31:58;12.10;53.00
19248;DHT22;9758;48.640;8.148;2023-04-25T05:34:28;12.10;53.00
19248;DHT22;9758;48.640;8.148;2023-04-25T05:36:56;12.10;53.00
19248;DHT22;9758;48.640;8.148;2023-04-25T05:39:24;12.10;53.10
19248;DHT22;9758;48.640;8.148;2023-04-25T05:42:00;12.10;53.20
19248;DHT22;9758;48.640;8.148;2023-04-25T05:44:41;12.10;53.20
19248;DHT22;9758;48.640;8.148;2023-04-25T05:47:08;12.10;53.20
19248;DHT22;9758;48.640;8.148;2023-04-25T05:49:45;12.10;53.20
19248;DHT22;9758;48.640;8.148;2023-04-25T05:52:14;12.10;53.30
19248;DHT22;9758;48.640;8.148;2023-04-25T05:54:46;12.10;53.30
19248;DHT22;9758;48.640;8.148;2023-04-25T05:57:29;12.10;53.30
19248;DHT22;9758;48.640;8.148;2023-04-25T06:00:12;12.10;53.30
19248;DHT22;9758;48.640;8.148;2023-04-25T06:02:58;12.20;53.30
19248;DHT22;9758;48.640;8.148;2023-04-25T06:06:00;12.10;53.20
19248;DHT22;9758;48.640;8.148;2023-04-25T06:09:11;12.10;53.30
19248;DHT22;9758;48.640;8.148;2023-04-25T06:15:16;11.80;53.40
19248;DHT22;9758;48.640;8.148;2023-04-25T06:18:25;11.70;53.60
19248;DHT22;9758;48.640;8.148;2023-04-25T06:59:54;11.40;53.90
19248;DHT22;9758;48.640;8.148;2023-04-25T07:02:21;11.50;53.90
19248;DHT22;9758;48.640;8.148;2023-04-25T07:22:13;11.40;53.90
19248;DHT22;9758;48.640;8.148;2023-04-25T08:51:39;10.00;55.40
19248;DHT22;9758;48.640;8.148;2023-04-25T10:11:35;11.40;54.30
19248;DHT22;9758;48.640;8.148;2023-04-25T10:14:18;11.50;54.40
19248;DHT22;9758;48.640;8.148;2023-04-25T10:16:54;11.60;54.30
19248;DHT22;9758;48.640;8.148;2023-04-25T10:19:37;11.60;54.30
19248;DHT22;9758;48.640;8.148;2023-04-25T10:22:29;11.70;54.20
19248;DHT22;9758;48.640;8.148;2023-04-25T10:25:10;11.70;54.20
19248;DHT22;9758;48.640;8.148;2023-04-25T10:44:21;11.80;54.10
19248;DHT22;9758;48.640;8.148;2023-04-25T10:47:06;11.90;54.10
19248;DHT22;9758;48.640;8.148;2023-04-25T10:49:50;11.80;54.10
19248;DHT22;9758;48.640;8.148;2023-04-25T10:52:33;11.90;54.10
19248;DHT22;9758;48.640;8.148;2023-04-25T10:55:14;11.90;54.20
19248;DHT22;9758;48.640;8.148;2023-04-25T10:58:21;12.00;54.30
19248;DHT22;9758;48.640;8.148;2023-04-25T11:23:45;12.30;53.90
19248;DHT22;9758;48.640;8.148;2023-04-25T11:26:13;12.30;53.80
19248;DHT22;9758;48.640;8.148;2023-04-25T11:28:40;12.30;53.80
19248;DHT22;9758;48.640;8.148;2023-04-25T11:31:07;12.20;53.90
19248;DHT22;9758;48.640;8.148;2023-04-25T11:33:37;12.20;54.00
19248;DHT22;9758;48.640;8.148;2023-04-25T11:36:06;12.30;54.10
19248;DHT22;9758;48.640;8.148;2023-04-25T11:38:34;12.30;54.10
19248;DHT22;9758;48.640;8.148;2023-04-25T11:41:04;12.40;54.20
19248;DHT22;9758;48.640;8.148;2023-04-25T11:43:31;12.50;54.40
19248;DHT22;9758;48.640;8.148;2023-04-25T11:45:58;12.60;54.50
19248;DHT22;9758;48.640;8.148;2023-04-25T11:48:25;12.80;54.60
19248;DHT22;9758;48.640;8.148;2023-04-25T11:50:53;13.00;54.60
19248;DHT22;9758;48.640;8.148;2023-04-25T11:53:21;13.20;54.60
19248;DHT22;9758;48.640;8.148;2023-04-25T11:55:50;13.40;54.40
19248;DHT22;9758;48.640;8.148;2023-04-25T11:58:18;13.70;54.20
19248;DHT22;9758;48.640;8.148;2023-04-25T12:00:45;13.80;54.00
19248;DHT22;9758;48.640;8.148;2023-04-25T12:03:11;14.00;53.80
19248;DHT22;9758;48.640;8.148;2023-04-25T12:05:38;14.10;53.60
19248;DHT22;9758;48.640;8.148;2023-04-25T12:08:11;14.20;53.50
19248;DHT22;9758;48.640;8.148;2023-04-25T12:10:41;14.30;53.40
19248;DHT22;9758;48.640;8.148;2023-04-25T12:13:21;14.40;53.30
19248;DHT22;9758;48.640;8.148;2023-04-25T12:15:48;14.50;53.30
19248;DHT22;9758;48.640;8.148;2023-04-25T12:18:29;14.60;53.30
19248;DHT22;9758;48.640;8.148;2023-04-25T12:20:58;14.70;53.40
19248;DHT22;9758;48.640;8.148;2023-04-25T12:23:39;14.90;53.30
19248;DHT22;9758;48.640;8.148;2023-04-25T12:26:11;15.00;52.90
19248;DHT22;9758;48.640;8.148;2023-04-25T12:28:56;15.00;53.00
19248;DHT22;9758;48.640;8.148;2023-04-25T12:31:24;14.90;52.80
19248;DHT22;9758;48.640;8.148;2023-04-25T12:34:07;14.90;53.00
19248;DHT22;9758;48.640;8.148;2023-04-25T12:36:34;15.00;53.00
19248;DHT22;9758;48.640;8.148;2023-04-25T12:39:07;14.90;52.30
19248;DHT22;9758;48.640;8.148;2023-04-25T12:41:40;14.60;52.50
19248;DHT22;9758;48.640;8.148;2023-04-25T12:44:26;14.30;52.70
19248;DHT22;9758;48.640;8.148;2023-04-25T12:47:10;14.00;52.80
19248;DHT22;9758;48.640;8.148;2023-04-25T12:49:58;13.70;53.10
19248;DHT22;9758;48.640;8.148;2023-04-25T12:52:30;13.50;53.30
19248;DHT22;9758;48.640;8.148;2023-04-25T12:54:57;13.50;54.20
19248;DHT22;9758;48.640;8.148;2023-04-25T12:57:24;13.40;53.60
19248;DHT22;9758;48.640;8.148;2023-04-25T12:59:53;13.30;53.70
19248;DHT22;9758;48.640;8.148;2023-04-25T13:02:20;13.20;53.60
19248;DHT22;9758;48.640;8.148;2023-04-25T13:04:47;13.10;53.50
19248;DHT22;9758;48.640;8.148;2023-04-25T13:07:13;13.00;53.60
19248;DHT22;9758;48.640;8.148;2023-04-25T13:09:41;12.80;53.60
19248;DHT22;9758;48.640;8.148;2023-04-25T13:12:08;12.70;53.70
19248;DHT22;9758;48.640;8.148;2023-04-25T13:17:58;12.50;54.00
19248;DHT22;9758;48.640;8.148;2023-04-25T13:20:25;12.40;54.10
19248;DHT22;9758;48.640;8.148;2023-04-25T13:22:52;12.40;54.30
19248;DHT22;9758;48.640;8.148;2023-04-25T13:25:19;12.40;54.50
19248;DHT22;9758;48.640;8.148;2023-04-25T13:28:07;12.60;54.60
19248;DHT22;9758;48.640;8.148;2023-04-25T13:30:33;12.70;54.60
19248;DHT22;9758;48.640;8.148;2023-04-25T13:33:01;12.80;54.60
19248;DHT22;9758;48.640;8.148;2023-04-25T13:35:30;13.00;54.60
19248;DHT22;9758;48.640;8.148;2023-04-25T13:37:57;13.20;54.60
19248;DHT22;9758;48.640;8.148;2023-04-25T13:40:23;13.40;54.40
19248;DHT22;9758;48.640;8.148;2023-04-25T13:42:50;13.60;54.30
19248;DHT22;9758;48.640;8.148;2023-04-25T13:45:17;13.80;54.10
19248;DHT22;9758;48.640;8.148;2023-04-25T13:47:44;13.90;53.80
19248;DHT22;9758;48.640;8.148;2023-04-25T13:50:12;14.10;53.80
19248;DHT22;9758;48.640;8.148;2023-04-25T13:52:40;14.20;53.70
19248;DHT22;9758;48.640;8.148;2023-04-25T13:55:07;14.30;53.70
19248;DHT22;9758;48.640;8.148;2023-04-25T13:57:34;14.40;53.60
19248;DHT22;9758;48.640;8.148;2023-04-25T14:00:04;14.50;53.70
19248;DHT22;9758;48.640;8.148;2023-04-25T14:02:34;14.60;53.70
19248;DHT22;9758;48.640;8.148;2023-04-25T14:05:01;14.80;53.80
19248;DHT22;9758;48.640;8.148;2023-04-25T14:07:30;14.90;53.70
19248;DHT22;9758;48.640;8.148;2023-04-25T14:09:57;15.10;53.40
19248;DHT22;9758;48.640;8.148;2023-04-25T14:12:24;15.20;53.20
19248;DHT22;9758;48.640;8.148;2023-04-25T14:14:51;15.30;53.00
19248;DHT22;9758;48.640;8.148;2023-04-25T14:17:18;15.30;52.70
19248;DHT22;9758;48.640;8.148;2023-04-25T14:19:45;15.30;52.50
19248;DHT22;9758;48.640;8.148;2023-04-25T14:22:13;15.30;52.20
19248;DHT22;9758;48.640;8.148;2023-04-25T14:24:42;15.20;52.20
19248;DHT22;9758;48.640;8.148;2023-04-25T14:27:09;15.00;52.40
19248;DHT22;9758;48.640;8.148;2023-04-25T14:29:36;14.90;52.40
19248;DHT22;9758;48.640;8.148;2023-04-25T14:32:03;14.80;52.50
19248;DHT22;9758;48.640;8.148;2023-04-25T14:34:30;14.70;52.70
19248;DHT22;9758;48.640;8.148;2023-04-25T14:36:57;14.70;53.10
19248;DHT22;9758;48.640;8.148;2023-04-25T14:39:24;14.70;53.20
19248;DHT22;9758;48.640;8.148;2023-04-25T14:41:52;14.80;53.20
19248;DHT22;9758;48.640;8.148;2023-04-25T14:44:19;14.90;53.20
19248;DHT22;9758;48.640;8.148;2023-04-25T14:46:46;15.10;53.10
19248;DHT22;9758;48.640;8.148;2023-04-25T14:49:13;15.20;53.10
19248;DHT22;9758;48.640;8.148;2023-04-25T14:51:40;15.40;53.20
19248;DHT22;9758;48.640;8.148;2023-04-25T14:54:06;15.70;53.10
19248;DHT22;9758;48.640;8.148;2023-04-25T14:56:34;15.90;52.80
19248;DHT22;9758;48.640;8.148;2023-04-25T14:59:23;16.00;52.20
19248;DHT22;9758;48.640;8.148;2023-04-25T15:02:14;16.10;52.30
19248;DHT22;9758;48.640;8.148;2023-04-25T15:04:58;16.30;52.40
19248;DHT22;9758;48.640;8.148;2023-04-25T15:07:26;16.40;51.70
19248;DHT22;9758;48.640;8.148;2023-04-25T15:09:54;16.50;51.90
19248;DHT22;9758;48.640;8.148;2023-04-25T15:12:26;16.60;51.90
19248;DHT22;9758;48.640;8.148;2023-04-25T15:15:09;16.60;51.60
19248;DHT22;9758;48.640;8.148;2023-04-25T15:17:37;16.60;51.50
19248;DHT22;9758;48.640;8.148;2023-04-25T15:20:05;16.60;51.60
19248;DHT22;9758;48.640;8.148;2023-04-25T15:22:32;16.60;51.40
19248;DHT22;9758;48.640;8.148;2023-04-25T15:24:59;16.50;51.30
19248;DHT22;9758;48.640;8.148;2023-04-25T15:27:26;16.50;51.50
19248;DHT22;9758;48.640;8.148;2023-04-25T15:29:55;16.40;51.70
19248;DHT22;9758;48.640;8.148;2023-04-25T15:32:24;16.50;52.30
19248;DHT22;9758;48.640;8.148;2023-04-25T15:34:51;17.00;53.40
19248;DHT22;9758;48.640;8.148;2023-04-25T15:37:18;17.90;54.00
19248;DHT22;9758;48.640;8.148;2023-04-25T15:39:45;18.80;53.00
19248;DHT22;9758;48.640;8.148;2023-04-25T15:42:11;19.50;51.40
19248;DHT22;9758;48.640;8.148;2023-04-25T15:44:38;19.70;50.00
19248;DHT22;9758;48.640;8.148;2023-04-25T15:47:05;19.50;49.30
19248;DHT22;9758;48.640;8.148;2023-04-25T15:49:33;19.20;48.80
19248;DHT22;9758;48.640;8.148;2023-04-25T15:52:07;18.70;49.00
19248;DHT22;9758;48.640;8.148;2023-04-25T15:54:34;18.20;49.00
19248;DHT22;9758;48.640;8.148;2023-04-25T15:57:01;17.60;49.10
19248;DHT22;9758;48.640;8.148;2023-04-25T15:59:28;17.00;49.70
19248;DHT22;9758;48.640;8.148;2023-04-25T16:01:55;16.50;50.40
19248;DHT22;9758;48.640;8.148;2023-04-25T16:04:22;16.00;50.80
19248;DHT22;9758;48.640;8.148;2023-04-25T16:06:51;15.70;51.20
19248;DHT22;9758;48.640;8.148;2023-04-25T16:09:18;15.50;51.40
19248;DHT22;9758;48.640;8.148;2023-04-25T16:11:44;15.30;51.60
19248;DHT22;9758;48.640;8.148;2023-04-25T16:14:12;15.10;51.70
19248;DHT22;9758;48.640;8.148;2023-04-25T16:16:49;15.00;51.90
19248;DHT22;9758;48.640;8.148;2023-04-25T16:19:16;14.90;51.90
19248;DHT22;9758;48.640;8.148;2023-04-25T16:21:43;14.60;51.80
19248;DHT22;9758;48.640;8.148;2023-04-25T16:24:25;14.40;52.00
19248;DHT22;9758;48.640;8.148;2023-04-25T16:27:10;14.10;52.20
19248;DHT22;9758;48.640;8.148;2023-04-25T16:29:51;13.80;52.60
19248;DHT22;9758;48.640;8.148;2023-04-25T16:32:33;13.60;52.80
19248;DHT22;9758;48.640;8.148;2023-04-25T16:35:00;13.40;52.90
19248;DHT22;9758;48.640;8.148;2023-04-25T16:37:41;13.20;53.10
19248;DHT22;9758;48.640;8.148;2023-04-25T16:40:10;13.10;53.30
19248;DHT22;9758;48.640;8.148;2023-04-25T16:42:37;13.10;53.50
19248;DHT22;9758;48.640;8.148;2023-04-25T16:45:05;13.20;53.80
19248;DHT22;9758;48.640;8.148;2023-04-25T16:47:31;13.40;54.00
19248;DHT22;9758;48.640;8.148;2023-04-25T16:49:59;13.60;54.00
19248;DHT22;9758;48.640;8.148;2023-04-25T16:52:26;13.90;54.00
19248;DHT22;9758;48.640;8.148;2023-04-25T16:55:02;14.20;53.90
19248;DHT22;9758;48.640;8.148;2023-04-25T16:57:31;14.50;53.60
19248;DHT22;9758;48.640;8.148;2023-04-25T16:59:58;14.70;53.20
19248;DHT22;9758;48.640;8.148;2023-04-25T17:02:25;14.90;52.90
19248;DHT22;9758;48.640;8.148;2023-04-25T17:04:52;14.90;52.50
19248;DHT22;9758;48.640;8.148;2023-04-25T17:07:33;14.90;52.30
19248;DHT22;9758;48.640;8.148;2023-04-25T17:10:01;14.90;52.20
19248;DHT22;9758;48.640;8.148;2023-04-25T17:12:31;14.70;52.00
19248;DHT22;9758;48.640;8.148;2023-04-25T17:14:59;14.70;52.00
19248;DHT22;9758;48.640;8.148;2023-04-25T17:17:34;14.50;52.00
19248;DHT22;9758;48.640;8.148;2023-04-25T17:20:15;14.40;52.00
19248;DHT22;9758;48.640;8.148;2023-04-25T17:22:56;14.20;52.10
19248;DHT22;9758;48.640;8.148;2023-04-25T17:25:23;14.10;52.20
19248;DHT22;9758;48.640;8.148;2023-04-25T17:27:51;14.00;52.40
19248;DHT22;9758;48.640;8.148;2023-04-25T17:30:18;13.90;52.50
19248;DHT22;9758;48.640;8.148;2023-04-25T17:32:45;13.80;52.50
19248;DHT22;9758;48.640;8.148;2023-04-25T17:35:12;13.80;52.60
19248;DHT22;9758;48.640;8.148;2023-04-25T17:37:40;13.60;52.60
19248;DHT22;9758;48.640;8.148;2023-04-25T17:40:08;13.60;52.70
19248;DHT22;9758;48.640;8.148;2023-04-25T17:42:37;13.50;52.70
19248;DHT22;9758;48.640;8.148;2023-04-25T17:45:19;13.40;52.60
19248;DHT22;9758;48.640;8.148;2023-04-25T17:47:46;13.30;52.80
19248;DHT22;9758;48.640;8.148;2023-04-25T17:50:13;13.20;52.80
19248;DHT22;9758;48.640;8.148;2023-04-25T17:52:43;13.00;53.00
19248;DHT22;9758;48.640;8.148;2023-04-25T17:55:13;12.80;53.20
19248;DHT22;9758;48.640;8.148;2023-04-25T17:57:55;12.70;53.50
19248;DHT22;9758;48.640;8.148;2023-04-25T19:10:49;12.00;54.40
19248;DHT22;9758;48.640;8.148;2023-04-25T19:24:21;12.00;54.50
19248;DHT22;9758;48.640;8.148;2023-04-25T20:00:44;11.80;54.50
19248;DHT22;9758;48.640;8.148;2023-04-25T20:03:12;11.80;54.40
19248;DHT22;9758;48.640;8.148;2023-04-25T20:06:22;11.80;54.50
19248;DHT22;9758;48.640;8.148;2023-04-25T20:09:24;11.80;54.60
19248;DHT22;9758;48.640;8.148;2023-04-25T20:12:44;11.80;54.60
19248;DHT22;9758;48.640;8.148;2023-04-25T21:52:25;11.60;55.00
19248;DHT22;9758;48.640;8.148;2023-04-25T21:54:53;11.60;55.00
19248;DHT22;9758;48.640;8.148;2023-04-25T21:57:20;11.60;55.10
19248;DHT22;9758;48.640;8.148;2023-04-25T21:59:47;11.60;55.10
19248;DHT22;9758;48.640;8.148;2023-04-25T22:02:14;11.60;55.10
19248;DHT22;9758;48.640;8.148;2023-04-25T22:04:41;11.60;55.10
19248;DHT22;9758;48.640;8.148;2023-04-25T22:07:09;11.60;55.10
19248;DHT22;9758;48.640;8.148;2023-04-25T22:09:38;11.60;55.10
19248;DHT22;9758;48.640;8.148;2023-04-25T22:12:05;11.60;55.10
19248;DHT22;9758;48.640;8.148;2023-04-25T22:14:33;11.60;55.10
19248;DHT22;9758;48.640;8.148;2023-04-25T22:17:02;11.60;55.10
19248;DHT22;9758;48.640;8.148;2023-04-25T22:19:29;11.60;55.20
19248;DHT22;9758;48.640;8.148;2023-04-25T22:21:56;11.60;55.20
19248;DHT22;9758;48.640;8.148;2023-04-25T22:24:23;11.60;55.20
19248;DHT22;9758;48.640;8.148;2023-04-25T22:27:01;11.50;55.20
19248;DHT22;9758;48.640;8.148;2023-04-25T22:29:28;11.50;55.00
19248;DHT22;9758;48.640;8.148;2023-04-25T22:31:55;11.50;55.00
19248;DHT22;9758;48.640;8.148;2023-04-25T22:34:22;11.50;55.00
19248;DHT22;9758;48.640;8.148;2023-04-25T22:36:49;11.50;55.10
19248;DHT22;9758;48.640;8.148;2023-04-25T22:39:16;11.50;55.10
19248;DHT22;9758;48.640;8.148;2023-04-25T22:41:43;11.40;55.00
19248;DHT22;9758;48.640;8.148;2023-04-25T22:44:12;11.30;55.00
19248;DHT22;9758;48.640;8.148;2023-04-25T22:46:39;11.20;54.90
19248;DHT22;9758;48.640;8.148;2023-04-25T22:49:06;11.20;55.00
19248;DHT22;9758;48.640;8.148;2023-04-25T22:51:34;11.10;55.10
19248;DHT22;9758;48.640;8.148;2023-04-25T22:54:01;11.10;55.10
19248;DHT22;9758;48.640;8.148;2023-04-25T22:56:29;11.10;55.20
19248;DHT22;9758;48.640;8.148;2023-04-25T22:58:57;11.00;55.10
19248;DHT22;9758;48.640;8.148;2023-04-25T23:01:25;11.00;55.10
19248;DHT22;9758;48.640;8.148;2023-04-25T23:03:52;11.00;55.10
19248;DHT22;9758;48.640;8.148;2023-04-25T23:06:19;11.00;55.20
19248;DHT22;9758;48.640;8.148;2023-04-25T23:08:45;11.00;55.20
19248;DHT22;9758;48.640;8.148;2023-04-25T23:11:12;11.00;55.20
19248;DHT22;9758;48.640;8.148;2023-04-25T23:13:39;11.00;55.20
19248;DHT22;9758;48.640;8.148;2023-04-25T23:16:07;11.00;55.20
19248;DHT22;9758;48.640;8.148;2023-04-25T23:18:37;10.90;55.10
19248;DHT22;9758;48.640;8.148;2023-04-25T23:21:04;10.90;55.10
19248;DHT22;9758;48.640;8.148;2023-04-25T23:23:32;10.90;55.20
19248;DHT22;9758;48.640;8.148;2023-04-25T23:25:59;10.90;55.20
19248;DHT22;9758;48.640;8.148;2023-04-25T23:28:26;10.80;55.20
19248;DHT22;9758;48.640;8.148;2023-04-25T23:30:53;10.80;55.20
19248;DHT22;9758;48.640;8.148;2023-04-25T23:33:19;10.80;55.20
19248;DHT22;9758;48.640;8.148;2023-04-25T23:35:47;10.80;55.30
19248;DHT22;9758;48.640;8.148;2023-04-25T23:38:14;10.70;55.30
19248;DHT22;9758;48.640;8.148;2023-04-25T23:40:41;10.70;55.30
19248;DHT22;9758;48.640;8.148;2023-04-25T23:43:08;10.70;55.30
19248;DHT22;9758;48.640;8.148;2023-04-25T23:45:35;10.70;55.30
19248;DHT22;9758;48.640;8.148;2023-04-25T23:48:02;10.60;55.20
19248;DHT22;9758;48.640;8.148;2023-04-25T23:50:28;10.70;55.30
19248;DHT22;9758;48.640;8.148;2023-04-25T23:52:57;10.60;55.30
19248;DHT22;9758;48.640;8.148;2023-04-25T23:55:24;10.60;55.30
19248;DHT22;9758;48.640;8.148;2023-04-25T23:57:51;10.50;55.20
